Time;durP1;ratioP1;P1;durP2;ratioP2;P2;SDS_P1;SDS_P2;PMS_P1;PMS_P2;Temp;Humidity;BMP_temperature;BMP_pressure;BME280_temperature;BME280_humidity;BME280_pressure;Samples;Min_cycle;Max_cycle;Signal;HPM_P1;HPM_P2
2021/12/06 00:00:27;;;;;;;;;;;1.90;99.90;;;;;;5013139;28;20369;-73
2021/12/06 00:02:54;;;;;;;;;;;1.70;99.90;;;;;;4995355;28;19932;-74
2021/12/06 00:05:22;;;;;;;;;;;1.70;99.90;;;;;;5013390;28;19913;-74
2021/12/06 00:07:47;;;;;;;;;;;1.80;99.90;;;;;;5012853;28;19963;-74
2021/12/06 00:10:14;;;;;;;;;;;2.00;99.90;;;;;;5013005;28;19905;-74
2021/12/06 00:12:41;;;;;;;;;;;2.00;99.90;;;;;;4995303;28;19905;-74
2021/12/06 00:15:07;;;;;;;;;;;2.20;99.90;;;;;;5013036;28;19945;-74
2021/12/06 00:17:32;;;;;;;;;;;2.10;99.90;;;;;;4978855;28;20404;-74
2021/12/06 00:19:58;;;;;;;;;;;2.20;99.90;;;;;;4979037;28;19941;-73
2021/12/06 00:22:24;;;;;;;;;;;2.00;99.90;;;;;;5012860;28;19905;-74
2021/12/06 00:24:53;;;;;;;;;;;1.80;99.90;;;;;;5012790;28;20360;-74
2021/12/06 00:27:19;;;;;;;;;;;1.80;99.90;;;;;;5012585;28;19905;-74
2021/12/06 00:29:46;;;;;;;;;;;1.80;99.90;;;;;;5012789;28;19912;-74
2021/12/06 00:32:11;;;;;;;;;;;1.90;99.90;;;;;;5012692;28;20008;-74
2021/12/06 00:34:38;;;;;;;;;;;1.90;99.90;;;;;;4995301;28;19955;-74
2021/12/06 00:37:54;;;;;;;;;;;1.80;99.90;;;;;;5012480;28;19909;-74
2021/12/06 00:39:53;;;;;;;;;;;1.80;99.90;;;;;;5005102;28;20004;-74
2021/12/06 00:42:20;;;;;;;;;;;1.90;99.90;;;;;;5012522;28;19905;-74
2021/12/06 00:44:46;;;;;;;;;;;2.00;99.90;;;;;;5012814;28;19912;-74
2021/12/06 00:47:12;;;;;;;;;;;2.00;99.90;;;;;;5012351;28;20294;-74
2021/12/06 00:49:37;;;;;;;;;;;2.00;99.90;;;;;;4978773;28;19935;-74
2021/12/06 00:52:04;;;;;;;;;;;2.20;99.90;;;;;;5012433;28;19917;-74
2021/12/06 00:54:34;;;;;;;;;;;2.20;99.90;;;;;;4978772;28;20284;-74
2021/12/06 00:57:00;;;;;;;;;;;2.00;99.90;;;;;;5046413;23;20375;-77
2021/12/06 00:59:26;;;;;;;;;;;2.10;99.90;;;;;;5052079;28;20374;-76
2021/12/06 01:01:54;;;;;;;;;;;2.30;99.90;;;;;;5052188;28;19904;-77
2021/12/06 01:04:19;;;;;;;;;;;2.20;99.90;;;;;;5052150;28;20249;-76
2021/12/06 01:06:45;;;;;;;;;;;2.30;99.90;;;;;;5050854;28;19995;-76
2021/12/06 01:09:11;;;;;;;;;;;2.20;99.90;;;;;;5050922;28;20330;-77
2021/12/06 01:11:36;;;;;;;;;;;2.20;99.90;;;;;;5050634;28;19904;-76
2021/12/06 01:14:02;;;;;;;;;;;2.30;99.90;;;;;;5052122;28;20415;-76
2021/12/06 01:16:29;;;;;;;;;;;2.40;99.90;;;;;;5052200;28;19947;-76
2021/12/06 01:18:55;;;;;;;;;;;2.40;99.90;;;;;;5051985;28;19904;-76
2021/12/06 01:21:31;;;;;;;;;;;2.40;99.90;;;;;;5052015;28;20419;-76
2021/12/06 01:24:00;;;;;;;;;;;2.50;99.90;;;;;;5051972;28;19987;-76
2021/12/06 01:41:37;;;;;;;;;;;2.20;99.90;;;;;;5050523;28;20291;-76
2021/12/06 01:44:03;;;;;;;;;;;2.20;99.90;;;;;;5052551;28;19904;-76
2021/12/06 01:46:30;;;;;;;;;;;2.00;99.90;;;;;;5054188;28;19984;-76
2021/12/06 01:48:55;;;;;;;;;;;2.10;99.90;;;;;;5055336;28;19905;-76
2021/12/06 01:51:21;;;;;;;;;;;2.10;99.90;;;;;;5055375;28;20360;-77
2021/12/06 01:53:46;;;;;;;;;;;2.30;99.90;;;;;;5037441;28;19984;-76
2021/12/06 01:56:12;;;;;;;;;;;2.40;99.90;;;;;;5055194;28;19986;-76
2021/12/06 01:58:38;;;;;;;;;;;2.50;99.90;;;;;;5053912;28;19980;-76
2021/12/06 02:01:04;;;;;;;;;;;2.50;99.90;;;;;;5053833;28;19916;-76
2021/12/06 02:03:29;;;;;;;;;;;2.50;99.90;;;;;;5053801;28;19904;-76
2021/12/06 02:05:55;;;;;;;;;;;2.30;99.90;;;;;;5055193;28;19912;-76
2021/12/06 02:08:20;;;;;;;;;;;2.30;99.90;;;;;;5053801;28;19908;-76
2021/12/06 02:10:46;;;;;;;;;;;2.30;99.90;;;;;;5037062;28;19912;-76
2021/12/06 02:13:12;;;;;;;;;;;2.20;99.90;;;;;;5053931;28;20340;-76
2021/12/06 02:15:47;;;;;;;;;;;2.20;99.90;;;;;;5053622;28;20202;-76
2021/12/06 02:18:16;;;;;;;;;;;2.20;99.90;;;;;;5055145;28;19954;-76
2021/12/06 02:20:58;;;;;;;;;;;2.10;99.90;;;;;;5055098;28;19912;-76
2021/12/06 02:23:23;;;;;;;;;;;2.00;99.90;;;;;;5053554;28;20364;-76
2021/12/06 02:25:49;;;;;;;;;;;2.10;99.90;;;;;;5054565;28;20007;-76
2021/12/06 02:28:15;;;;;;;;;;;2.20;99.90;;;;;;5054665;28;20083;-76
2021/12/06 02:30:40;;;;;;;;;;;2.10;99.90;;;;;;5053299;28;19913;-76
2021/12/06 02:33:06;;;;;;;;;;;2.10;99.90;;;;;;5036778;28;20339;-77
2021/12/06 02:35:32;;;;;;;;;;;2.20;99.90;;;;;;5054488;28;20280;-76
2021/12/06 02:37:58;;;;;;;;;;;2.40;99.90;;;;;;5053314;28;20368;-76
2021/12/06 02:40:25;;;;;;;;;;;2.50;99.90;;;;;;5053269;28;19939;-77
2021/12/06 02:42:51;;;;;;;;;;;2.50;99.90;;;;;;5036556;28;19909;-76
2021/12/06 02:45:19;;;;;;;;;;;2.60;99.90;;;;;;5054334;28;20332;-76
2021/12/06 02:47:46;;;;;;;;;;;2.60;99.90;;;;;;5054300;28;19904;-77
2021/12/06 02:50:12;;;;;;;;;;;2.60;99.90;;;;;;5053012;28;20359;-76
2021/12/06 02:52:39;;;;;;;;;;;2.40;99.90;;;;;;5036690;28;19905;-76
2021/12/06 02:55:20;;;;;;;;;;;2.40;99.90;;;;;;5051735;28;19909;-76
2021/12/06 02:57:53;;;;;;;;;;;2.40;99.90;;;;;;5053016;28;19964;-76
2021/12/06 03:00:19;;;;;;;;;;;2.40;99.90;;;;;;5053971;28;19974;-76
2021/12/06 03:02:45;;;;;;;;;;;2.60;99.90;;;;;;5052822;28;19909;-77
2021/12/06 03:05:10;;;;;;;;;;;2.60;99.90;;;;;;5052762;28;19971;-76
2021/12/06 03:07:37;;;;;;;;;;;2.60;99.90;;;;;;5053891;28;20256;-77
2021/12/06 03:10:04;;;;;;;;;;;2.70;99.90;;;;;;5052653;28;19912;-76
2021/12/06 03:12:29;;;;;;;;;;;2.70;99.90;;;;;;5052719;28;19962;-76
2021/12/06 03:14:56;;;;;;;;;;;2.60;99.90;;;;;;5052469;28;19925;-76
2021/12/06 03:17:23;;;;;;;;;;;2.50;99.90;;;;;;5052554;28;19912;-76
2021/12/06 03:19:49;;;;;;;;;;;2.40;99.90;;;;;;5052211;28;20275;-76
2021/12/06 03:22:15;;;;;;;;;;;2.40;99.90;;;;;;5052297;28;19904;-77
2021/12/06 03:24:42;;;;;;;;;;;2.50;99.90;;;;;;5053600;28;20390;-76
2021/12/06 03:27:07;;;;;;;;;;;2.60;99.90;;;;;;5052384;28;19904;-76
2021/12/06 03:29:34;;;;;;;;;;;2.50;99.90;;;;;;5052209;28;19934;-77
2021/12/06 03:31:59;;;;;;;;;;;2.50;99.90;;;;;;5053376;28;19905;-76
2021/12/06 03:34:26;;;;;;;;;;;2.60;99.90;;;;;;5055606;28;19912;-77
2021/12/06 03:36:53;;;;;;;;;;;2.60;99.90;;;;;;5038106;28;19905;-77
2021/12/06 03:39:23;;;;;;;;;;;2.60;99.90;;;;;;5055729;28;19912;-76
2021/12/06 03:41:52;;;;;;;;;;;2.60;99.90;;;;;;5053056;28;19905;-76
2021/12/06 03:44:20;;;;;;;;;;;2.60;99.90;;;;;;5035457;28;20423;-76
2021/12/06 03:46:47;;;;;;;;;;;2.70;99.90;;;;;;5051747;28;19905;-76
2021/12/06 03:49:14;;;;;;;;;;;2.70;99.90;;;;;;5051855;28;19913;-76
2021/12/06 03:51:41;;;;;;;;;;;2.80;99.90;;;;;;5035072;28;19966;-76
2021/12/06 03:54:07;;;;;;;;;;;2.80;99.90;;;;;;5053151;28;19904;-76
2021/12/06 03:56:36;;;;;;;;;;;2.80;99.90;;;;;;5051652;28;20360;-76
2021/12/06 03:59:02;;;;;;;;;;;2.90;99.90;;;;;;5052973;28;20325;-76
2021/12/06 04:01:29;;;;;;;;;;;2.90;99.90;;;;;;5052862;28;19939;-76
2021/12/06 04:03:55;;;;;;;;;;;2.90;99.90;;;;;;5035114;28;19905;-76
2021/12/06 04:06:21;;;;;;;;;;;3.00;99.90;;;;;;5051159;28;19955;-76
2021/12/06 04:08:47;;;;;;;;;;;3.00;99.90;;;;;;5034965;28;19966;-76
2021/12/06 04:11:13;;;;;;;;;;;2.90;99.90;;;;;;5051377;28;19912;-76
2021/12/06 04:13:39;;;;;;;;;;;2.60;99.90;;;;;;5034857;28;19905;-76
2021/12/06 04:16:06;;;;;;;;;;;2.60;99.90;;;;;;5052490;28;19911;-76
2021/12/06 04:18:32;;;;;;;;;;;2.70;99.90;;;;;;5052646;28;19912;-76
2021/12/06 04:20:58;;;;;;;;;;;2.80;99.90;;;;;;5051210;28;20284;-76
2021/12/06 04:23:23;;;;;;;;;;;2.80;99.90;;;;;;5052615;28;19904;-76
2021/12/06 04:25:49;;;;;;;;;;;2.90;99.90;;;;;;5034534;28;19932;-76
2021/12/06 04:28:18;;;;;;;;;;;2.80;99.90;;;;;;5051433;28;19911;-76
2021/12/06 04:30:43;;;;;;;;;;;2.80;99.90;;;;;;5051288;28;19905;-76
2021/12/06 04:33:09;;;;;;;;;;;2.80;99.90;;;;;;5051328;28;20261;-76
2021/12/06 04:35:37;;;;;;;;;;;2.80;99.90;;;;;;5034533;28;19904;-76
2021/12/06 04:38:03;;;;;;;;;;;2.70;99.90;;;;;;5051235;28;19951;-76
2021/12/06 04:40:29;;;;;;;;;;;2.70;99.90;;;;;;5050862;28;20020;-76
2021/12/06 04:42:55;;;;;;;;;;;2.70;99.90;;;;;;5051196;28;19983;-76
2021/12/06 04:45:21;;;;;;;;;;;2.60;99.90;;;;;;5052348;28;20282;-76
2021/12/06 04:47:47;;;;;;;;;;;2.60;99.90;;;;;;5051099;28;20287;-76
2021/12/06 04:50:14;;;;;;;;;;;2.60;99.90;;;;;;5051033;28;19905;-76
2021/12/06 04:52:40;;;;;;;;;;;2.70;99.90;;;;;;5051047;28;19904;-76
2021/12/06 04:55:10;;;;;;;;;;;2.70;99.90;;;;;;5050893;28;19908;-76
2021/12/06 04:57:38;;;;;;;;;;;2.60;99.90;;;;;;5051960;28;19916;-76
2021/12/06 05:00:09;;;;;;;;;;;2.50;99.90;;;;;;5034324;28;19949;-76
2021/12/06 05:02:36;;;;;;;;;;;2.60;99.90;;;;;;5052080;28;20311;-76
2021/12/06 05:05:05;;;;;;;;;;;2.60;99.90;;;;;;5034405;28;19999;-76
2021/12/06 05:07:37;;;;;;;;;;;2.60;99.90;;;;;;5050764;28;19909;-76
2021/12/06 05:10:07;;;;;;;;;;;2.60;99.90;;;;;;5052289;28;19939;-76
2021/12/06 05:12:33;;;;;;;;;;;2.60;99.90;;;;;;5050955;28;19944;-76
2021/12/06 05:14:58;;;;;;;;;;;2.50;99.90;;;;;;5052154;28;19905;-76
2021/12/06 05:17:24;;;;;;;;;;;2.60;99.90;;;;;;5034053;28;19905;-76
2021/12/06 05:19:50;;;;;;;;;;;2.40;99.90;;;;;;5037510;28;19912;-76
2021/12/06 05:22:16;;;;;;;;;;;2.20;99.90;;;;;;5055704;28;19911;-76
2021/12/06 05:24:42;;;;;;;;;;;2.30;99.90;;;;;;5054794;28;19904;-76
2021/12/06 05:27:07;;;;;;;;;;;2.30;99.90;;;;;;5055889;28;19944;-76
2021/12/06 05:29:33;;;;;;;;;;;2.40;99.90;;;;;;5055963;28;19958;-76
2021/12/06 05:32:00;;;;;;;;;;;2.20;99.90;;;;;;5055499;28;20424;-76
2021/12/06 05:34:37;;;;;;;;;;;2.30;99.90;;;;;;5054790;28;19905;-76
2021/12/06 05:37:03;;;;;;;;;;;2.20;99.90;;;;;;5037594;28;19911;-76
2021/12/06 05:39:30;;;;;;;;;;;2.10;99.90;;;;;;5054280;28;19909;-76
2021/12/06 05:42:00;;;;;;;;;;;2.20;99.90;;;;;;5037469;28;19908;-76
2021/12/06 05:44:26;;;;;;;;;;;2.10;99.90;;;;;;5054359;28;20284;-76
2021/12/06 05:46:51;;;;;;;;;;;2.10;99.90;;;;;;5054018;28;19904;-76
2021/12/06 05:49:17;;;;;;;;;;;2.10;99.90;;;;;;5037575;28;19905;-76
2021/12/06 05:51:43;;;;;;;;;;;2.30;99.90;;;;;;5055300;28;19995;-76
2021/12/06 05:54:08;;;;;;;;;;;2.40;99.90;;;;;;5054068;28;20020;-76
2021/12/06 05:56:34;;;;;;;;;;;2.40;99.90;;;;;;5037184;28;19912;-76
2021/12/06 05:58:59;;;;;;;;;;;2.30;99.90;;;;;;5055184;28;19911;-76
2021/12/06 06:01:29;;;;;;;;;;;2.20;99.90;;;;;;5037272;28;19913;-76
2021/12/06 06:04:00;;;;;;;;;;;2.00;99.90;;;;;;5055250;28;19905;-76
2021/12/06 06:06:33;;;;;;;;;;;1.90;99.90;;;;;;5055211;28;19904;-76
2021/12/06 06:08:59;;;;;;;;;;;2.10;99.90;;;;;;5054931;28;19904;-76
2021/12/06 06:11:26;;;;;;;;;;;2.10;99.90;;;;;;5053785;28;19936;-76
2021/12/06 06:13:52;;;;;;;;;;;2.10;99.90;;;;;;5053724;28;19905;-76
2021/12/06 06:16:20;;;;;;;;;;;2.20;99.90;;;;;;5053516;28;19944;-76
2021/12/06 06:18:47;;;;;;;;;;;2.20;99.90;;;;;;5054962;28;19951;-76
2021/12/06 06:21:13;;;;;;;;;;;2.30;99.90;;;;;;5052999;28;20353;-76
2021/12/06 06:23:38;;;;;;;;;;;2.30;99.90;;;;;;5053653;28;19950;-76
2021/12/06 06:26:04;;;;;;;;;;;2.30;99.90;;;;;;5053299;28;20379;-76
2021/12/06 06:28:29;;;;;;;;;;;2.30;99.90;;;;;;5053296;28;20054;-76
2021/12/06 06:30:55;;;;;;;;;;;2.30;99.90;;;;;;5036575;28;20408;-76
2021/12/06 06:33:21;;;;;;;;;;;2.10;99.90;;;;;;5053568;28;20275;-76
2021/12/06 06:35:47;;;;;;;;;;;2.10;99.90;;;;;;5036548;28;19989;-76
2021/12/06 06:38:12;;;;;;;;;;;2.10;99.90;;;;;;5054456;28;20283;-76
2021/12/06 06:40:38;;;;;;;;;;;2.10;99.90;;;;;;5053071;28;20065;-76
2021/12/06 06:43:04;;;;;;;;;;;1.90;99.90;;;;;;5054469;28;19912;-76
2021/12/06 06:45:30;;;;;;;;;;;1.90;99.90;;;;;;5053106;28;19927;-76
2021/12/06 06:47:55;;;;;;;;;;;1.90;99.90;;;;;;5053014;28;19911;-76
2021/12/06 06:50:21;;;;;;;;;;;1.80;99.90;;;;;;5054217;28;19912;-76
2021/12/06 06:52:48;;;;;;;;;;;1.80;99.90;;;;;;5053017;28;19988;-76
2021/12/06 06:55:15;;;;;;;;;;;1.80;99.90;;;;;;5050183;28;19905;-76
2021/12/06 06:57:41;;;;;;;;;;;1.80;99.90;;;;;;5052762;28;19966;-76
2021/12/06 07:00:14;;;;;;;;;;;1.70;99.90;;;;;;5060646;22;19921;-78
2021/12/06 07:02:40;;;;;;;;;;;1.70;99.90;;;;;;5016337;28;19905;-78
2021/12/06 07:05:06;;;;;;;;;;;1.60;99.90;;;;;;5016841;28;19910;-78
2021/12/06 07:07:32;;;;;;;;;;;1.60;99.90;;;;;;5016264;28;20368;-79
2021/12/06 07:09:58;;;;;;;;;;;1.80;99.90;;;;;;5017791;28;19913;-78
2021/12/06 07:12:24;;;;;;;;;;;1.80;99.90;;;;;;5016347;28;20320;-76
2021/12/06 07:14:49;;;;;;;;;;;1.90;99.90;;;;;;5015811;28;19906;-78
2021/12/06 07:17:16;;;;;;;;;;;1.90;99.90;;;;;;5016977;28;19910;-78
2021/12/06 07:19:42;;;;;;;;;;;1.80;99.90;;;;;;5000265;28;19937;-78
2021/12/06 07:22:07;;;;;;;;;;;1.70;99.90;;;;;;5017102;28;19905;-78
2021/12/06 07:24:33;;;;;;;;;;;1.70;99.90;;;;;;4999865;28;19906;-79
2021/12/06 07:26:59;;;;;;;;;;;1.90;99.90;;;;;;5017210;28;19912;-79
2021/12/06 07:29:24;;;;;;;;;;;1.90;99.90;;;;;;5016109;28;19912;-78
2021/12/06 07:31:51;;;;;;;;;;;1.70;99.90;;;;;;5016194;28;19913;-76
2021/12/06 07:34:16;;;;;;;;;;;1.80;99.90;;;;;;5014870;28;19905;-77
2021/12/06 07:36:42;;;;;;;;;;;1.80;99.90;;;;;;5016948;28;19905;-76
2021/12/06 07:39:08;;;;;;;;;;;1.80;99.90;;;;;;5015562;28;19909;-78
2021/12/06 07:41:33;;;;;;;;;;;1.60;99.90;;;;;;5016761;28;20284;-78
2021/12/06 07:43:59;;;;;;;;;;;1.70;99.90;;;;;;5015974;28;19910;-78
2021/12/06 07:46:25;;;;;;;;;;;1.80;99.90;;;;;;5016989;28;19975;-77
2021/12/06 07:48:52;;;;;;;;;;;2.00;99.90;;;;;;5032306;28;20316;-78
2021/12/06 07:51:28;;;;;;;;;;;2.20;99.90;;;;;;5016012;28;19906;-78
2021/12/06 07:53:54;;;;;;;;;;;2.10;99.90;;;;;;5017697;28;19905;-77
2021/12/06 07:56:20;;;;;;;;;;;2.20;99.90;;;;;;5016954;28;19928;-78
2021/12/06 07:58:46;;;;;;;;;;;2.20;99.90;;;;;;5015456;28;19909;-78
2021/12/06 08:01:11;;;;;;;;;;;2.00;99.90;;;;;;5015194;28;20351;-77
2021/12/06 08:03:38;;;;;;;;;;;2.10;99.90;;;;;;5015930;28;20316;-78
2021/12/06 08:06:05;;;;;;;;;;;2.00;99.90;;;;;;5014701;28;19996;-79
2021/12/06 08:08:31;;;;;;;;;;;2.00;99.90;;;;;;5015110;28;19913;-79
2021/12/06 08:10:58;;;;;;;;;;;2.10;99.90;;;;;;5015560;28;20407;-79
2021/12/06 08:13:28;;;;;;;;;;;2.30;99.90;;;;;;5017589;28;20361;-79
2021/12/06 08:15:54;;;;;;;;;;;2.40;99.90;;;;;;5013010;28;19905;-77
2021/12/06 08:18:20;;;;;;;;;;;2.50;99.90;;;;;;4998135;28;19928;-79
2021/12/06 08:20:46;;;;;;;;;;;2.70;99.90;;;;;;5013708;28;19913;-79
2021/12/06 08:23:13;;;;;;;;;;;2.80;99.90;;;;;;4997494;28;20341;-78
2021/12/06 08:25:39;;;;;;;;;;;2.70;99.90;;;;;;5015869;28;19995;-79
2021/12/06 08:28:05;;;;;;;;;;;2.40;99.90;;;;;;5014267;28;19912;-78
2021/12/06 08:30:31;;;;;;;;;;;2.40;99.90;;;;;;5017388;28;20004;-78
2021/12/06 08:32:59;;;;;;;;;;;2.40;99.90;;;;;;4998627;28;20284;-78
2021/12/06 08:35:28;;;;;;;;;;;2.40;99.90;;;;;;5019370;28;19937;-78
2021/12/06 08:37:55;;;;;;;;;;;2.50;99.90;;;;;;5015584;28;19999;-77
2021/12/06 08:40:21;;;;;;;;;;;2.40;99.90;;;;;;5017547;28;19909;-78
2021/12/06 08:42:46;;;;;;;;;;;2.40;99.90;;;;;;5015086;28;19966;-75
2021/12/06 08:45:12;;;;;;;;;;;2.30;99.90;;;;;;5000993;28;20323;-78
2021/12/06 08:47:38;;;;;;;;;;;2.20;99.90;;;;;;5015768;28;19914;-78
2021/12/06 08:50:05;;;;;;;;;;;2.20;99.90;;;;;;5002465;28;19909;-77
2021/12/06 08:52:31;;;;;;;;;;;2.10;99.90;;;;;;5015552;28;19906;-78
2021/12/06 08:54:56;;;;;;;;;;;2.20;99.90;;;;;;5019648;28;20064;-78
2021/12/06 08:57:22;;;;;;;;;;;2.30;99.90;;;;;;5002469;28;19905;-75
2021/12/06 08:59:48;;;;;;;;;;;2.40;99.90;;;;;;5022176;28;19921;-78
2021/12/06 09:02:14;;;;;;;;;;;2.50;99.90;;;;;;5001329;28;19905;-78
2021/12/06 09:04:40;;;;;;;;;;;2.50;99.90;;;;;;5005602;28;20003;-78
2021/12/06 09:07:11;;;;;;;;;;;2.70;99.90;;;;;;5019267;28;19948;-78
2021/12/06 09:09:40;;;;;;;;;;;2.60;99.90;;;;;;5019202;28;20308;-78
2021/12/06 09:12:06;;;;;;;;;;;2.60;99.90;;;;;;4997166;28;19913;-78
2021/12/06 09:14:32;;;;;;;;;;;2.60;99.90;;;;;;5020753;28;19934;-78
2021/12/06 09:16:58;;;;;;;;;;;2.60;99.90;;;;;;5018106;28;19906;-78
2021/12/06 09:19:23;;;;;;;;;;;2.80;99.90;;;;;;5020247;28;19916;-78
2021/12/06 09:21:49;;;;;;;;;;;2.90;99.90;;;;;;5020079;28;20404;-77
2021/12/06 09:24:17;;;;;;;;;;;2.90;99.90;;;;;;5001957;28;19905;-76
2021/12/06 09:26:43;;;;;;;;;;;3.00;99.90;;;;;;5013465;28;20265;-77
2021/12/06 09:29:09;;;;;;;;;;;2.80;99.90;;;;;;5002448;28;20387;-76
2021/12/06 09:31:35;;;;;;;;;;;2.50;99.90;;;;;;5002748;28;19913;-78
2021/12/06 09:34:00;;;;;;;;;;;2.60;99.90;;;;;;5016412;28;20389;-77
2021/12/06 09:36:26;;;;;;;;;;;2.60;99.90;;;;;;5002742;28;20086;-78
2021/12/06 09:38:52;;;;;;;;;;;2.50;99.90;;;;;;5000100;28;19991;-78
2021/12/06 09:41:21;;;;;;;;;;;2.60;99.90;;;;;;5022085;28;19917;-79
2021/12/06 09:43:48;;;;;;;;;;;2.70;99.90;;;;;;5000207;28;19957;-77
2021/12/06 09:46:14;;;;;;;;;;;2.90;99.90;;;;;;5020347;28;19916;-79
2021/12/06 09:48:40;;;;;;;;;;;2.90;99.90;;;;;;5018101;28;19905;-79
2021/12/06 09:51:09;;;;;;;;;;;2.80;99.90;;;;;;5020621;28;19910;-78
2021/12/06 09:53:36;;;;;;;;;;;2.60;99.90;;;;;;5001316;28;19910;-78
2021/12/06 09:56:05;;;;;;;;;;;2.70;99.90;;;;;;5023317;28;19905;-78
2021/12/06 09:58:30;;;;;;;;;;;2.60;99.90;;;;;;5017823;28;19909;-78
2021/12/06 10:00:58;;;;;;;;;;;2.60;99.90;;;;;;5001307;28;19920;-78
2021/12/06 10:03:28;;;;;;;;;;;2.60;99.90;;;;;;5017649;28;19905;-77
2021/12/06 10:06:01;;;;;;;;;;;2.50;99.90;;;;;;5002833;28;19905;-79
2021/12/06 10:08:27;;;;;;;;;;;2.40;99.90;;;;;;5001510;28;19906;-78
2021/12/06 10:10:53;;;;;;;;;;;2.40;99.90;;;;;;5021376;28;20372;-78
2021/12/06 10:13:19;;;;;;;;;;;2.30;99.90;;;;;;5018957;28;19905;-78
2021/12/06 10:15:46;;;;;;;;;;;2.30;99.90;;;;;;5017645;28;19912;-79
2021/12/06 10:18:16;;;;;;;;;;;2.40;99.90;;;;;;5017935;28;19909;-78
2021/12/06 10:20:43;;;;;;;;;;;2.40;99.90;;;;;;5003814;28;19964;-78
2021/12/06 10:23:10;;;;;;;;;;;2.40;99.90;;;;;;5019263;28;19906;-79
2021/12/06 10:25:42;;;;;;;;;;;2.20;99.90;;;;;;5020591;28;19992;-79
2021/12/06 10:28:09;;;;;;;;;;;2.20;99.90;;;;;;5012851;28;20321;-79
2021/12/06 10:30:37;;;;;;;;;;;2.40;99.90;;;;;;5000467;28;19992;-78
2021/12/06 10:33:04;;;;;;;;;;;2.60;99.90;;;;;;5018986;28;19905;-79
2021/12/06 10:35:30;;;;;;;;;;;3.00;99.90;;;;;;5018224;28;20047;-77
2021/12/06 10:37:57;;;;;;;;;;;3.10;99.90;;;;;;5016107;28;19909;-79
2021/12/06 10:40:27;;;;;;;;;;;3.00;99.90;;;;;;5023136;28;19910;-77
2021/12/06 10:42:53;;;;;;;;;;;2.90;99.90;;;;;;5018869;28;20586;-79
2021/12/06 10:45:47;;;;;;;;;;;2.90;99.90;;;;;;5016677;28;19905;-77
2021/12/06 10:48:13;;;;;;;;;;;2.70;99.90;;;;;;5012070;28;20234;-79
2021/12/06 10:50:43;;;;;;;;;;;2.80;99.90;;;;;;5018302;28;20371;-78
2021/12/06 10:53:11;;;;;;;;;;;2.80;99.90;;;;;;5000414;28;19906;-78
2021/12/06 10:55:37;;;;;;;;;;;2.90;99.90;;;;;;5017433;28;19955;-78
2021/12/06 10:58:04;;;;;;;;;;;3.10;99.90;;;;;;5018471;28;20351;-77
2021/12/06 11:00:32;;;;;;;;;;;3.10;99.90;;;;;;5016005;28;20435;-79
2021/12/06 11:02:58;;;;;;;;;;;3.10;99.90;;;;;;5022491;28;19906;-78
2021/12/06 11:05:24;;;;;;;;;;;3.30;99.90;;;;;;5014525;28;19906;-78
2021/12/06 11:08:10;;;;;;;;;;;3.60;99.90;;;;;;5017982;28;19909;-79
2021/12/06 11:10:44;;;;;;;;;;;3.50;99.90;;;;;;4999233;28;19913;-76
2021/12/06 11:13:20;;;;;;;;;;;3.50;99.90;;;;;;5019491;28;19912;-78
2021/12/06 11:15:57;;;;;;;;;;;3.50;99.90;;;;;;5014261;28;19916;-78
2021/12/06 11:18:30;;;;;;;;;;;3.50;99.90;;;;;;5015985;28;19928;-79
2021/12/06 11:20:55;;;;;;;;;;;3.10;99.90;;;;;;5012668;28;19913;-79
2021/12/06 11:23:21;;;;;;;;;;;3.10;99.90;;;;;;5015849;28;19955;-76
2021/12/06 11:25:57;;;;;;;;;;;3.10;99.90;;;;;;5017204;28;19913;-76
2021/12/06 11:28:28;;;;;;;;;;;3.30;99.90;;;;;;5017208;28;19906;-79
2021/12/06 11:30:59;;;;;;;;;;;3.40;99.90;;;;;;4998593;28;19913;-78
2021/12/06 11:33:29;;;;;;;;;;;3.10;99.90;;;;;;5018879;28;19912;-78
2021/12/06 11:35:55;;;;;;;;;;;2.90;99.90;;;;;;5016357;28;19909;-79
2021/12/06 11:38:21;;;;;;;;;;;2.90;99.90;;;;;;5014573;28;19959;-78
2021/12/06 11:40:47;;;;;;;;;;;3.00;99.90;;;;;;5015192;28;19913;-78
2021/12/06 11:43:14;;;;;;;;;;;3.00;99.90;;;;;;5016623;28;19912;-79
2021/12/06 11:45:52;;;;;;;;;;;2.90;99.90;;;;;;5015505;28;19905;-79
2021/12/06 11:48:19;;;;;;;;;;;2.80;99.90;;;;;;5017442;28;19910;-78
2021/12/06 11:50:50;;;;;;;;;;;3.00;99.90;;;;;;4997971;28;19960;-79
2021/12/06 11:53:17;;;;;;;;;;;3.30;99.90;;;;;;4997549;28;19951;-77
2021/12/06 11:56:03;;;;;;;;;;;3.20;99.90;;;;;;5014925;28;19906;-78
2021/12/06 11:58:34;;;;;;;;;;;3.40;99.90;;;;;;5015479;28;19913;-78
2021/12/06 12:01:05;;;;;;;;;;;3.10;99.90;;;;;;5010894;28;19914;-79
2021/12/06 12:03:32;;;;;;;;;;;2.70;99.90;;;;;;5018677;28;19960;-78
2021/12/06 12:05:59;;;;;;;;;;;2.60;99.90;;;;;;5014883;28;20001;-77
2021/12/06 12:08:25;;;;;;;;;;;2.70;99.90;;;;;;5019866;28;19909;-76
2021/12/06 12:10:52;;;;;;;;;;;2.90;99.90;;;;;;5015946;28;19913;-79
2021/12/06 12:13:25;;;;;;;;;;;3.00;99.90;;;;;;5016139;28;19952;-78
2021/12/06 12:15:56;;;;;;;;;;;2.90;99.90;;;;;;5014636;28;19912;-78
2021/12/06 12:18:22;;;;;;;;;;;2.80;99.90;;;;;;5016533;28;20415;-79
2021/12/06 12:20:48;;;;;;;;;;;2.70;99.90;;;;;;5014275;28;19909;-77
2021/12/06 12:23:15;;;;;;;;;;;2.80;99.90;;;;;;5018582;28;19916;-77
2021/12/06 12:25:53;;;;;;;;;;;3.00;99.90;;;;;;5014805;28;20675;-77
2021/12/06 12:28:31;;;;;;;;;;;3.20;99.90;;;;;;5014107;28;19909;-77
2021/12/06 12:30:58;;;;;;;;;;;3.10;99.90;;;;;;5013760;28;19913;-77
2021/12/06 12:33:24;;;;;;;;;;;3.10;99.90;;;;;;5015770;28;20254;-78
2021/12/06 12:35:51;;;;;;;;;;;3.20;99.90;;;;;;5013482;28;19959;-78
2021/12/06 12:38:19;;;;;;;;;;;3.40;99.90;;;;;;5017839;28;19913;-78
2021/12/06 12:40:48;;;;;;;;;;;3.20;99.90;;;;;;5016498;28;19915;-77
2021/12/06 12:43:18;;;;;;;;;;;3.10;99.90;;;;;;4996815;28;19910;-77
2021/12/06 12:45:45;;;;;;;;;;;3.10;99.90;;;;;;4998766;28;19928;-79
2021/12/06 12:48:11;;;;;;;;;;;3.10;99.90;;;;;;5015545;28;20004;-77
2021/12/06 12:50:38;;;;;;;;;;;3.20;99.90;;;;;;5014784;28;19909;-79
2021/12/06 12:53:05;;;;;;;;;;;3.20;99.90;;;;;;5019109;28;19909;-79
2021/12/06 12:55:31;;;;;;;;;;;3.30;99.90;;;;;;5014829;28;20011;-79
2021/12/06 12:58:07;;;;;;;;;;;3.20;99.90;;;;;;5019512;28;20601;-78
2021/12/06 13:00:33;;;;;;;;;;;3.10;99.90;;;;;;5012735;28;19913;-79
2021/12/06 13:03:01;;;;;;;;;;;2.80;99.90;;;;;;4999708;28;19904;-79
2021/12/06 13:05:30;;;;;;;;;;;2.70;99.90;;;;;;5015135;28;19945;-79
2021/12/06 13:07:59;;;;;;;;;;;2.90;99.90;;;;;;5000079;28;20135;-77
2021/12/06 13:10:30;;;;;;;;;;;2.80;99.90;;;;;;5015236;28;20379;-79
2021/12/06 13:12:58;;;;;;;;;;;2.90;99.90;;;;;;5017710;28;19921;-79
2021/12/06 13:15:52;;;;;;;;;;;3.10;99.90;;;;;;5016796;28;19905;-79
2021/12/06 13:18:31;;;;;;;;;;;3.10;99.90;;;;;;5016853;28;19906;-79
2021/12/06 13:20:57;;;;;;;;;;;2.90;99.90;;;;;;5015043;28;19917;-79
2021/12/06 13:23:26;;;;;;;;;;;2.80;99.90;;;;;;5018475;28;19958;-79
2021/12/06 13:26:12;;;;;;;;;;;2.90;99.90;;;;;;5016572;28;19909;-78
2021/12/06 13:29:00;;;;;;;;;;;3.00;99.90;;;;;;5013776;28;19943;-78
2021/12/06 13:31:26;;;;;;;;;;;3.30;99.90;;;;;;5014568;28;19909;-79
2021/12/06 13:33:52;;;;;;;;;;;3.30;99.90;;;;;;5014452;28;19913;-76
2021/12/06 13:36:37;;;;;;;;;;;3.40;99.90;;;;;;4997957;28;19924;-79
2021/12/06 13:39:06;;;;;;;;;;;3.30;99.90;;;;;;5018532;28;19909;-80
2021/12/06 13:41:44;;;;;;;;;;;3.30;99.90;;;;;;5021188;28;19909;-79
2021/12/06 13:44:10;;;;;;;;;;;3.10;99.90;;;;;;5026963;28;19964;-78
2021/12/06 13:46:40;;;;;;;;;;;3.30;99.90;;;;;;5022940;28;19913;-80
2021/12/06 13:49:12;;;;;;;;;;;3.30;99.90;;;;;;5021463;28;19913;-80
2021/12/06 13:51:38;;;;;;;;;;;3.10;99.90;;;;;;5022081;28;19910;-78
2021/12/06 13:54:05;;;;;;;;;;;2.90;99.90;;;;;;5022251;28;19917;-80
2021/12/06 13:56:42;;;;;;;;;;;3.00;99.90;;;;;;5020898;28;19912;-80
2021/12/06 13:59:09;;;;;;;;;;;3.00;99.90;;;;;;5006652;28;19951;-78
2021/12/06 14:01:35;;;;;;;;;;;2.90;99.90;;;;;;5021025;28;19920;-79
2021/12/06 14:04:08;;;;;;;;;;;2.70;99.90;;;;;;5025662;28;19909;-80
2021/12/06 14:06:41;;;;;;;;;;;2.70;99.90;;;;;;5017651;28;19951;-80
2021/12/06 14:09:07;;;;;;;;;;;2.80;99.90;;;;;;5022849;28;19917;-80
2021/12/06 14:11:32;;;;;;;;;;;2.90;99.90;;;;;;5004112;28;19913;-78
2021/12/06 14:13:59;;;;;;;;;;;3.00;99.90;;;;;;5021702;28;19913;-79
2021/12/06 14:16:29;;;;;;;;;;;3.00;99.90;;;;;;5018569;28;19905;-79
2021/12/06 14:18:55;;;;;;;;;;;2.90;99.90;;;;;;5022801;28;19920;-78
2021/12/06 14:21:21;;;;;;;;;;;2.90;99.90;;;;;;5022130;28;19909;-81
2021/12/06 14:23:47;;;;;;;;;;;2.80;99.90;;;;;;5004561;28;19913;-78
2021/12/06 14:26:14;;;;;;;;;;;2.70;99.90;;;;;;5020653;28;19909;-78
2021/12/06 14:28:44;;;;;;;;;;;2.90;99.90;;;;;;5005469;28;19905;-80
2021/12/06 14:31:09;;;;;;;;;;;3.00;99.90;;;;;;5024036;28;19949;-78
2021/12/06 14:33:35;;;;;;;;;;;3.00;99.90;;;;;;5022024;28;19906;-78
2021/12/06 14:36:03;;;;;;;;;;;2.90;99.90;;;;;;5020426;28;19955;-76
2021/12/06 14:38:30;;;;;;;;;;;3.00;99.90;;;;;;5016008;28;19905;-74
2021/12/06 14:40:57;;;;;;;;;;;3.40;99.90;;;;;;5021552;28;19956;-79
2021/12/06 14:43:23;;;;;;;;;;;3.50;99.90;;;;;;5016846;28;19997;-81
2021/12/06 14:45:49;;;;;;;;;;;3.50;99.90;;;;;;5021062;28;19948;-78
2021/12/06 14:48:19;;;;;;;;;;;3.40;99.90;;;;;;5002411;28;19970;-79